Time;durP1;ratioP1;P1;durP2;ratioP2;P2;SDS_P1;SDS_P2;PMS_P1;PMS_P2;Temp;Humidity;BMP_temperature;BMP_pressure;BME280_temperature;BME280_humidity;BME280_pressure;Samples;Min_cycle;Max_cycle;Signal;HPM_P1;HPM_P2
2022/10/03 00:02:40;;;;;;;17.67;2.55;;;13.70;99.90;;;;;;6244632;22;20024;-77
2022/10/03 00:05:38;;;;;;;13.48;2.53;;;13.70;99.90;;;;;;6243146;23;20123;-80
2022/10/03 00:08:12;;;;;;;11.68;2.55;;;13.60;99.90;;;;;;6230905;23;20086;-80
2022/10/03 00:10:50;;;;;;;17.23;1.90;;;13.60;99.90;;;;;;6243575;23;20024;-81
2022/10/03 00:13:33;;;;;;;17.40;2.13;;;13.60;99.90;;;;;;6242380;22;20028;-77
2022/10/03 00:16:21;;;;;;;10.27;2.00;;;13.60;99.90;;;;;;6242802;23;20035;-80
2022/10/03 00:19:24;;;;;;;13.93;2.20;;;13.60;99.90;;;;;;6243193;23;20036;-78
2022/10/03 00:22:02;;;;;;;15.02;1.90;;;13.60;99.90;;;;;;6242605;23;20031;-80
2022/10/03 00:24:44;;;;;;;11.65;1.80;;;13.50;99.90;;;;;;6244981;22;20457;-79
2022/10/03 00:27:51;;;;;;;20.48;2.97;;;13.50;99.90;;;;;;6243546;23;20026;-79
2022/10/03 00:30:23;;;;;;;11.07;3.03;;;13.50;99.90;;;;;;6185777;23;20028;-81
2022/10/03 00:33:16;;;;;;;14.48;2.55;;;13.50;99.90;;;;;;6239908;23;20060;-78
2022/10/03 00:36:02;;;;;;;16.98;2.20;;;13.50;99.90;;;;;;6217171;23;20028;-78
2022/10/03 00:38:57;;;;;;;12.68;2.00;;;13.50;99.90;;;;;;6242631;23;20024;-79
2022/10/03 00:41:47;;;;;;;22.00;2.03;;;13.50;99.90;;;;;;6232523;23;20042;-78
2022/10/03 00:44:15;;;;;;;11.02;1.70;;;13.50;99.90;;;;;;6242030;23;20027;-82
2022/10/03 00:46:54;;;;;;;11.70;2.08;;;13.40;99.90;;;;;;6216832;23;20024;-80
2022/10/03 00:49:32;;;;;;;14.20;2.53;;;13.40;99.90;;;;;;6243971;22;20080;-79
2022/10/03 00:52:26;;;;;;;14.60;2.28;;;13.40;99.90;;;;;;6242521;23;20032;-81
2022/10/03 00:55:13;;;;;;;14.73;2.22;;;13.40;99.90;;;;;;6246902;23;20103;-82
2022/10/03 00:57:56;;;;;;;15.15;2.83;;;13.40;99.90;;;;;;6242157;23;20038;-81
2022/10/03 01:00:26;;;;;;;17.55;2.22;;;13.40;99.90;;;;;;6241992;23;20074;-80
2022/10/03 01:03:11;;;;;;;13.25;2.33;;;13.40;99.90;;;;;;6242143;23;20529;-81
2022/10/03 01:06:25;;;;;;;13.90;2.13;;;13.50;99.90;;;;;;6242095;23;20095;-81
2022/10/03 01:09:06;;;;;;;17.20;3.33;;;13.50;99.90;;;;;;6210347;23;20086;-80
2022/10/03 01:11:35;;;;;;;20.27;2.88;;;13.60;99.90;;;;;;6239980;22;20062;-83
2022/10/03 01:14:25;;;;;;;13.27;2.70;;;13.70;99.90;;;;;;6241410;23;20099;-78
2022/10/03 01:17:22;;;;;;;11.35;2.22;;;13.70;99.90;;;;;;6241925;23;20318;-84
2022/10/03 01:20:10;;;;;;;9.40;1.95;;;13.70;99.90;;;;;;6241698;23;20126;-83
2022/10/03 01:23:06;;;;;;;20.98;2.85;;;13.70;99.90;;;;;;6242975;22;20028;-80
2022/10/03 01:25:36;;;;;;;17.60;2.67;;;13.70;99.90;;;;;;6244389;22;20666;-78
2022/10/03 01:31:16;;;;;;;15.55;3.33;;;13.70;99.90;;;;;;6241838;23;20020;-83
2022/10/03 01:33:59;;;;;;;15.13;2.88;;;13.60;99.90;;;;;;6243533;22;20024;-80
2022/10/03 01:36:49;;;;;;;17.88;3.42;;;13.60;99.90;;;;;;6243703;22;20078;-79
2022/10/03 01:39:28;;;;;;;18.63;2.33;;;13.60;99.90;;;;;;6241830;23;20453;-81
2022/10/03 01:42:27;;;;;;;15.30;2.25;;;13.70;99.90;;;;;;6244386;23;20236;-79
2022/10/03 01:45:03;;;;;;;18.25;2.70;;;13.70;99.90;;;;;;6243522;22;20032;-78
2022/10/03 01:47:58;;;;;;;16.85;2.70;;;13.70;99.90;;;;;;6243521;22;20027;-79
2022/10/03 01:51:01;;;;;;;18.08;3.20;;;13.80;99.90;;;;;;6243640;22;20534;-81
2022/10/03 01:54:07;;;;;;;13.13;2.53;;;13.80;99.90;;;;;;6241779;23;20046;-80
2022/10/03 01:56:40;;;;;;;18.55;2.10;;;13.80;99.90;;;;;;6245618;22;20107;-79
2022/10/03 01:59:51;;;;;;;10.37;2.50;;;13.80;99.90;;;;;;6241831;23;20020;-80
2022/10/03 02:02:46;;;;;;;10.50;2.00;;;13.80;99.90;;;;;;6241562;23;20024;-80
2022/10/03 02:05:37;;;;;;;11.90;2.28;;;13.80;99.90;;;;;;6228682;23;20134;-82
2022/10/03 02:08:29;;;;;;;15.80;2.22;;;13.80;99.90;;;;;;6237172;23;20074;-81
2022/10/03 02:11:07;;;;;;;11.40;1.75;;;13.80;99.90;;;;;;6243061;22;20031;-81
2022/10/03 02:13:58;;;;;;;12.55;2.03;;;13.80;99.90;;;;;;6242502;23;20028;-83
2022/10/03 02:16:36;;;;;;;11.95;1.98;;;13.80;99.90;;;;;;6243301;22;20122;-79
2022/10/03 02:19:30;;;;;;;14.88;2.75;;;13.80;99.90;;;;;;6243352;23;20059;-79
2022/10/03 02:21:59;;;;;;;19.33;2.75;;;13.70;99.90;;;;;;6216966;23;20028;-83
2022/10/03 02:24:39;;;;;;;11.95;1.98;;;13.60;99.90;;;;;;6243320;22;20035;-80
2022/10/03 02:27:34;;;;;;;13.50;1.88;;;13.60;99.90;;;;;;6216119;23;20024;-81
2022/10/03 02:30:31;;;;;;;8.80;1.83;;;13.50;99.90;;;;;;6219673;23;20023;-77
2022/10/03 02:33:25;;;;;;;11.90;2.22;;;13.40;99.90;;;;;;6243656;22;20119;-83
2022/10/03 02:36:06;;;;;;;12.82;2.30;;;13.40;99.90;;;;;;6243922;22;20097;-78
2022/10/03 02:39:03;;;;;;;15.70;2.15;;;13.30;99.90;;;;;;6245326;22;20116;-81
2022/10/03 02:41:54;;;;;;;12.55;2.38;;;13.30;99.90;;;;;;6245146;22;20074;-80
2022/10/03 02:44:29;;;;;;;16.60;1.80;;;13.40;99.90;;;;;;6245425;23;20024;-81
2022/10/03 02:47:26;;;;;;;13.40;1.65;;;13.40;99.90;;;;;;6244884;23;20028;-79
2022/10/03 02:50:12;;;;;;;11.25;1.80;;;13.50;99.90;;;;;;6244711;22;20056;-77
2022/10/03 02:53:07;;;;;;;14.40;1.95;;;13.60;99.90;;;;;;6246707;22;20020;-78
2022/10/03 02:55:39;;;;;;;18.25;2.22;;;13.60;99.90;;;;;;6246719;22;20043;-81
2022/10/03 02:58:14;;;;;;;11.32;2.47;;;13.60;99.90;;;;;;6245271;23;20031;-81
2022/10/03 03:01:11;;;;;;;16.17;2.80;;;13.60;99.90;;;;;;6243414;23;20456;-81
2022/10/03 03:03:46;;;;;;;12.20;1.98;;;13.70;99.90;;;;;;6244257;23;20532;-81
2022/10/03 03:06:22;;;;;;;16.65;2.38;;;13.70;99.90;;;;;;6245141;22;20016;-81
2022/10/03 03:09:24;;;;;;;11.35;1.83;;;13.70;99.90;;;;;;6244940;22;20030;-79
2022/10/03 03:12:10;;;;;;;10.27;1.70;;;13.70;99.90;;;;;;6243064;22;20035;-81
2022/10/03 03:14:51;;;;;;;13.50;2.42;;;13.70;99.90;;;;;;6242754;23;20099;-79
2022/10/03 03:18:05;;;;;;;18.05;2.30;;;13.70;99.90;;;;;;6217873;23;20190;-78
2022/10/03 03:20:57;;;;;;;20.73;2.00;;;13.80;99.90;;;;;;6212351;23;20024;-83
2022/10/03 03:23:51;;;;;;;16.15;2.47;;;13.70;99.90;;;;;;6242138;23;20059;-79
2022/10/03 03:26:42;;;;;;;11.13;2.15;;;13.80;99.90;;;;;;6245334;23;20024;-78
2022/10/03 03:29:33;;;;;;;17.23;3.88;;;13.70;99.90;;;;;;6244729;23;20416;-81
2022/10/03 03:32:01;;;;;;;11.55;2.42;;;13.70;99.90;;;;;;6244933;22;20024;-78
2022/10/03 03:35:06;;;;;;;13.70;2.47;;;13.70;99.90;;;;;;6244362;23;20483;-79
2022/10/03 03:37:56;;;;;;;15.82;2.55;;;13.70;99.90;;;;;;6217436;23;20016;-84
2022/10/03 03:40:31;;;;;;;29.10;4.22;;;13.70;99.90;;;;;;6245629;22;20524;-82
2022/10/03 03:43:28;;;;;;;14.40;2.75;;;13.70;99.90;;;;;;6244470;22;20016;-78
2022/10/03 03:46:19;;;;;;;12.55;2.17;;;13.70;99.90;;;;;;6244689;22;20034;-81
2022/10/03 03:49:13;;;;;;;9.73;2.10;;;13.60;99.90;;;;;;6244445;22;20024;-80
2022/10/03 03:51:42;;;;;;;13.00;1.60;;;13.60;99.90;;;;;;6244710;22;20067;-80
2022/10/03 03:54:26;;;;;;;18.80;2.33;;;13.60;99.90;;;;;;6244845;22;20047;-80
2022/10/03 03:57:20;;;;;;;12.85;1.92;;;13.60;99.90;;;;;;6243308;23;20024;-81
2022/10/03 04:00:11;;;;;;;17.60;2.05;;;13.50;99.90;;;;;;6242967;23;20091;-80
2022/10/03 04:03:02;;;;;;;10.95;1.85;;;13.50;99.90;;;;;;6244161;23;20445;-85
2022/10/03 04:05:52;;;;;;;12.73;1.98;;;13.50;99.90;;;;;;6244859;22;20020;-80
2022/10/03 04:08:37;;;;;;;16.67;2.67;;;13.50;99.90;;;;;;6244239;22;20099;-81
2022/10/03 04:11:51;;;;;;;10.73;1.90;;;13.50;99.90;;;;;;6242273;22;20337;-83
2022/10/03 04:14:48;;;;;;;10.20;1.88;;;13.40;99.90;;;;;;6237027;23;20020;-78
2022/10/03 04:20:33;;;;;;;11.20;1.98;;;13.30;99.90;;;;;;6243806;23;20514;-79
2022/10/03 04:23:07;;;;;;;11.98;1.80;;;13.20;99.90;;;;;;6242210;23;20027;-80
2022/10/03 04:25:42;;;;;;;;;;;13.20;99.90;;;;;;6243342;23;20798;-80
2022/10/03 04:28:34;;;;;;;12.50;2.20;;;13.10;99.90;;;;;;6243233;23;20034;-79
2022/10/03 04:31:15;;;;;;;21.17;2.97;;;13.00;99.90;;;;;;6234668;23;20251;-79
2022/10/03 04:33:59;;;;;;;14.68;2.05;;;13.00;99.90;;;;;;6243089;23;20472;-78
2022/10/03 04:36:56;;;;;;;16.98;2.45;;;13.00;99.90;;;;;;6242791;23;20085;-78
2022/10/03 04:39:27;;;;;;;21.17;2.75;;;12.90;99.90;;;;;;6242926;23;20059;-79
2022/10/03 04:42:01;;;;;;;14.15;2.08;;;12.90;99.90;;;;;;6245456;22;20016;-80
2022/10/03 04:45:05;;;;;;;14.83;1.57;;;12.90;99.90;;;;;;6268429;22;20034;-79
2022/10/03 04:47:47;;;;;;;7.13;1.80;;;12.80;99.90;;;;;;6185710;23;20021;-79
2022/10/03 04:50:22;;;;;;;9.13;1.92;;;12.80;99.90;;;;;;6237810;23;20028;-79
2022/10/03 04:52:57;;;;;;;13.93;2.45;;;12.70;99.90;;;;;;6243776;23;20486;-78
2022/10/03 04:55:48;;;;;;;14.93;2.15;;;12.60;99.90;;;;;;6241983;23;20020;-79
2022/10/03 04:58:37;;;;;;;18.88;2.67;;;12.50;99.90;;;;;;6243736;22;20026;-80
2022/10/03 05:01:22;;;;;;;12.73;1.60;;;12.40;99.90;;;;;;6217548;23;20019;-79
2022/10/03 05:03:59;;;;;;;13.60;1.88;;;12.40;99.90;;;;;;6242254;23;20522;-78
2022/10/03 05:06:57;;;;;;;14.98;1.70;;;12.30;99.90;;;;;;6244161;23;20043;-78
2022/10/03 05:09:31;;;;;;;10.15;1.67;;;12.20;99.90;;;;;;6230905;23;20027;-78
2022/10/03 05:12:17;;;;;;;17.25;1.88;;;12.10;99.90;;;;;;6241390;22;20024;-77
2022/10/03 05:15:04;;;;;;;14.38;2.13;;;12.10;99.90;;;;;;6242135;23;20024;-78
2022/10/03 05:17:45;;;;;;;11.20;2.22;;;12.00;99.90;;;;;;6242872;23;20476;-79
2022/10/03 05:20:26;;;;;;;12.05;1.65;;;11.90;99.90;;;;;;6243515;22;20101;-79
2022/10/03 05:23:47;;;;;;;11.65;1.45;;;11.80;99.90;;;;;;6241518;23;20089;-78
2022/10/03 05:26:49;;;;;;;21.98;3.80;;;11.70;99.90;;;;;;6185019;23;20103;-78
2022/10/03 05:29:54;;;;;;;11.20;1.67;;;11.60;99.90;;;;;;6216511;23;20326;-80
2022/10/03 05:32:32;;;;;;;10.00;1.85;;;11.60;99.90;;;;;;6210244;23;20381;-79
2022/10/03 05:35:22;;;;;;;13.30;2.25;;;11.60;99.90;;;;;;6210291;23;20331;-79
2022/10/03 05:38:09;;;;;;;10.00;1.88;;;11.50;99.90;;;;;;6233929;23;20082;-78
2022/10/03 05:40:39;;;;;;;11.95;1.50;;;11.40;99.90;;;;;;6242017;23;20024;-79
2022/10/03 05:43:11;;;;;;;10.57;2.05;;;11.40;99.90;;;;;;6241269;23;20441;-80
2022/10/03 05:45:40;;;;;;;18.15;2.42;;;11.40;99.90;;;;;;6241540;23;20020;-83
2022/10/03 05:48:20;;;;;;;15.00;2.13;;;11.40;99.90;;;;;;6242097;22;20640;-80
2022/10/03 05:51:13;;;;;;;8.80;1.58;;;11.30;99.90;;;;;;6243685;22;20016;-79
2022/10/03 05:53:48;;;;;;;8.77;1.50;;;11.30;99.90;;;;;;6243146;23;20028;-82
2022/10/03 05:56:34;;;;;;;8.98;2.20;;;11.30;99.90;;;;;;6243911;22;20020;-80
2022/10/03 05:59:22;;;;;;;11.05;1.77;;;11.20;99.90;;;;;;6243380;22;20028;-78
2022/10/03 06:01:48;;;;;;;9.32;1.60;;;11.20;99.90;;;;;;6243601;23;20032;-78
2022/10/03 06:04:23;;;;;;;8.23;1.73;;;11.20;99.90;;;;;;6242955;22;20034;-78
2022/10/03 06:06:49;;;;;;;;;;;11.10;99.90;;;;;;6242810;23;20070;-78
2022/10/03 06:09:46;;;;;;;11.23;1.40;;;11.10;99.90;;;;;;6241699;23;20291;-78
2022/10/03 06:12:29;;;;;;;11.25;1.77;;;11.00;99.90;;;;;;6243115;22;20028;-79
2022/10/03 06:15:19;;;;;;;7.43;1.67;;;11.10;99.90;;;;;;6242076;23;20023;-78
2022/10/03 06:17:58;;;;;;;6.82;1.63;;;11.10;99.90;;;;;;6215850;23;20457;-78
2022/10/03 06:20:58;;;;;;;16.13;2.28;;;11.10;99.90;;;;;;6241170;23;20028;-79
2022/10/03 06:23:55;;;;;;;12.82;2.22;;;11.10;99.90;;;;;;6242542;23;20543;-79
2022/10/03 06:26:42;;;;;;;13.80;2.42;;;11.10;99.90;;;;;;6245335;22;20060;-79
2022/10/03 06:29:32;;;;;;;15.48;1.92;;;11.10;99.90;;;;;;6243899;23;20056;-78
2022/10/03 06:32:04;;;;;;;12.73;2.10;;;11.10;99.90;;;;;;6245612;22;20016;-79
2022/10/03 06:34:52;;;;;;;13.77;2.05;;;11.10;99.90;;;;;;6243560;23;20024;-80
2022/10/03 06:37:48;;;;;;;8.93;2.15;;;11.10;99.90;;;;;;6243691;23;20024;-78
2022/10/03 06:40:32;;;;;;;12.45;2.35;;;11.20;99.90;;;;;;6245385;23;20071;-80
2022/10/03 06:43:28;;;;;;;10.00;2.25;;;11.20;99.90;;;;;;6245147;23;20070;-78
2022/10/03 06:45:57;;;;;;;9.73;1.92;;;11.30;99.90;;;;;;6243169;23;20035;-78
2022/10/03 06:48:29;;;;;;;12.73;1.95;;;11.30;99.90;;;;;;6242836;23;20031;-79
2022/10/03 06:51:21;;;;;;;12.43;2.25;;;11.40;99.90;;;;;;6243139;23;20020;-78
2022/10/03 06:54:09;;;;;;;15.07;2.45;;;11.40;99.90;;;;;;6244925;22;20138;-80
2022/10/03 06:57:01;;;;;;;12.23;2.30;;;11.50;99.90;;;;;;6245420;22;20103;-81
2022/10/03 07:00:03;;;;;;;13.75;2.80;;;11.60;99.90;;;;;;6244829;22;20106;-84
2022/10/03 07:02:38;;;;;;;16.98;2.58;;;11.70;99.90;;;;;;6244164;22;20472;-80
2022/10/03 07:05:19;;;;;;;12.52;2.67;;;11.80;99.90;;;;;;6245287;23;20035;-78
2022/10/03 07:08:07;;;;;;;8.18;2.13;;;12.00;99.90;;;;;;6243601;23;20107;-79
2022/10/03 07:10:50;;;;;;;13.38;2.08;;;12.20;99.90;;;;;;6245681;23;20027;-78
2022/10/03 07:13:38;;;;;;;15.93;3.08;;;12.30;99.90;;;;;;6243547;23;20020;-80
2022/10/03 07:16:17;;;;;;;18.10;2.17;;;12.40;99.90;;;;;;6243220;23;20115;-80
2022/10/03 07:18:57;;;;;;;14.35;2.10;;;12.60;99.90;;;;;;6244925;22;20016;-79
2022/10/03 07:21:51;;;;;;;12.05;2.50;;;12.70;99.90;;;;;;6245048;23;20055;-79
2022/10/03 07:24:55;;;;;;;15.43;1.75;;;12.80;99.90;;;;;;6243092;23;20444;-82
2022/10/03 07:27:38;;;;;;;17.35;3.83;;;12.90;99.90;;;;;;6246008;23;20020;-78
2022/10/03 07:30:23;;;;;;;11.75;2.30;;;13.00;99.90;;;;;;6243204;23;20467;-80
2022/10/03 07:33:27;;;;;;;10.65;2.10;;;13.20;99.90;;;;;;6217500;23;20028;-83
2022/10/03 07:39:10;;;;;;;14.40;2.45;;;13.40;99.90;;;;;;6242704;23;20465;-81
2022/10/03 07:42:00;;;;;;;18.58;2.67;;;13.50;99.90;;;;;;6244855;22;20025;-83
2022/10/03 07:44:57;;;;;;;12.25;2.38;;;13.60;99.90;;;;;;6244553;22;20021;-81
2022/10/03 07:47:53;;;;;;;16.77;2.13;;;13.70;99.90;;;;;;6244962;22;20108;-80
2022/10/03 07:50:36;;;;;;;18.67;2.65;;;13.80;99.90;;;;;;6244288;22;20402;-79
2022/10/03 07:53:23;;;;;;;14.65;2.88;;;13.90;99.90;;;;;;6244558;22;20028;-79
2022/10/03 07:56:12;;;;;;;11.02;1.88;;;13.90;99.90;;;;;;6242610;23;20492;-80
2022/10/03 07:58:53;;;;;;;15.38;2.17;;;14.00;99.90;;;;;;6244306;22;20020;-83
2022/10/03 08:01:34;;;;;;;10.40;1.90;;;14.00;99.90;;;;;;6245072;22;20119;-80
2022/10/03 08:04:29;;;;;;;12.35;2.10;;;14.10;99.90;;;;;;6245900;22;20028;-80
2022/10/03 08:07:32;;;;;;;13.10;2.03;;;14.10;99.90;;;;;;6215779;23;20032;-79
2022/10/03 08:10:12;;;;;;;15.02;3.08;;;14.10;99.90;;;;;;6244854;23;20020;-78
2022/10/03 08:13:05;;;;;;;12.38;2.80;;;14.20;99.90;;;;;;6242625;22;20020;-79
2022/10/03 08:15:53;;;;;;;17.95;2.58;;;14.30;99.90;;;;;;6244590;23;20030;-79
2022/10/03 08:18:35;;;;;;;18.42;2.22;;;14.40;99.90;;;;;;6244515;22;20030;-81
2022/10/03 08:21:17;;;;;;;17.65;3.22;;;14.50;99.90;;;;;;6244326;23;20103;-79
2022/10/03 08:24:12;;;;;;;14.57;2.53;;;14.60;99.90;;;;;;6218833;23;20082;-79
2022/10/03 08:26:51;;;;;;;11.30;1.55;;;14.70;99.90;;;;;;6242956;23;20024;-82
2022/10/03 08:29:41;;;;;;;14.00;1.55;;;14.80;99.90;;;;;;6217435;23;20555;-81
2022/10/03 08:32:22;;;;;;;5.00;1.40;;;14.90;99.90;;;;;;6244444;23;20024;-81
2022/10/03 08:35:06;;;;;;;10.50;2.03;;;15.00;99.90;;;;;;6242871;23;20399;-81
2022/10/03 08:37:56;;;;;;;8.57;1.77;;;15.20;99.90;;;;;;6245546;22;20059;-82
2022/10/03 08:40:25;;;;;;;18.27;2.50;;;15.30;99.90;;;;;;6242524;23;20024;-83
2022/10/03 08:43:24;;;;;;;7.03;1.77;;;15.50;99.90;;;;;;6244430;23;20095;-82
2022/10/03 08:45:53;;;;;;;9.40;1.35;;;15.60;99.90;;;;;;6245677;23;20027;-81
2022/10/03 08:48:28;;;;;;;9.45;1.80;;;15.80;99.90;;;;;;6243599;23;20030;-83
2022/10/03 08:51:33;;;;;;;11.40;1.80;;;15.90;99.90;;;;;;6245526;22;20251;-79
2022/10/03 08:54:18;;;;;;;10.18;1.95;;;16.00;99.90;;;;;;6211871;23;20030;-77
2022/10/03 08:57:14;;;;;;;10.15;2.13;;;16.10;99.90;;;;;;6244384;22;20024;-80
2022/10/03 09:00:18;;;;;;;11.38;1.63;;;16.30;99.90;;;;;;6243348;23;20016;-80
2022/10/03 09:03:13;;;;;;;10.52;1.38;;;16.40;99.90;;;;;;6244366;22;20021;-81
2022/10/03 09:05:51;;;;;;;15.50;2.63;;;16.50;99.90;;;;;;6244410;23;20031;-79
2022/10/03 09:08:46;;;;;;;14.30;2.05;;;16.50;99.90;;;;;;6243851;22;20456;-84
2022/10/03 09:11:49;;;;;;;7.63;1.60;;;16.60;99.90;;;;;;6241709;22;20016;-80
2022/10/03 09:14:41;;;;;;;9.32;1.40;;;16.70;99.90;;;;;;6184971;23;20498;-82
2022/10/03 09:17:38;;;;;;;8.10;1.30;;;16.80;99.90;;;;;;6241069;23;20460;-83
2022/10/03 09:20:23;;;;;;;8.73;1.63;;;16.90;99.90;;;;;;6245039;22;20357;-83
2022/10/03 09:22:59;;;;;;;6.82;1.65;;;17.00;99.90;;;;;;6243370;23;20415;-79
2022/10/03 09:25:49;;;;;;;9.05;1.30;;;17.10;99.90;;;;;;6243324;22;20043;-80
2022/10/03 09:28:49;;;;;;;7.78;1.38;;;17.10;99.90;;;;;;6241900;23;20527;-79
2022/10/03 09:31:41;;;;;;;9.70;1.40;;;17.20;99.90;;;;;;6243333;22;20031;-80
2022/10/03 09:34:44;;;;;;;10.02;1.73;;;17.30;99.90;;;;;;6243364;22;20059;-80
2022/10/03 09:37:37;;;;;;;7.75;1.42;;;17.30;99.90;;;;;;6242177;23;20380;-80
2022/10/03 09:40:47;;;;;;;7.80;1.48;;;17.40;99.90;;;;;;6244056;23;20345;-80
2022/10/03 09:43:18;;;;;;;8.77;1.30;;;17.50;99.90;;;;;;6241483;23;20382;-80
2022/10/03 09:45:57;;;;;;;8.90;1.58;;;17.50;99.90;;;;;;6242508;23;20095;-80
2022/10/03 09:48:32;;;;;;;10.35;1.58;;;17.60;99.90;;;;;;6241529;23;20020;-80
2022/10/03 09:51:17;;;;;;;8.52;1.17;;;17.60;99.90;;;;;;6243737;22;20027;-82
2022/10/03 09:54:07;;;;;;;8.88;1.27;;;17.70;99.90;;;;;;6244789;23;20023;-79
2022/10/03 09:56:58;;;;;;;10.18;1.33;;;17.80;99.90;;;;;;6243472;23;20020;-81
2022/10/03 09:59:46;;;;;;;8.35;1.40;;;18.00;99.90;;;;;;6243416;23;20028;-81
2022/10/03 10:02:27;;;;;;;12.57;1.77;;;18.10;99.90;;;;;;6241741;23;20080;-81
2022/10/03 10:05:19;;;;;;;12.20;2.00;;;18.20;99.90;;;;;;6243622;22;20384;-79
2022/10/03 10:08:05;;;;;;;11.32;1.85;;;18.20;99.90;;;;;;6243255;23;20035;-79
2022/10/03 10:11:09;;;;;;;6.25;1.27;;;18.40;99.90;;;;;;6226011;22;20070;-81
2022/10/03 10:13:58;;;;;;;10.68;1.95;;;18.50;99.90;;;;;;6241660;23;20036;-82
2022/10/03 10:16:36;;;;;;;8.85;1.70;;;18.90;99.90;;;;;;6237090;23;20063;-82
2022/10/03 10:19:16;;;;;;;8.95;1.70;;;18.90;99.90;;;;;;6242749;23;20518;-80
2022/10/03 10:22:00;;;;;;;8.10;1.60;;;18.90;99.90;;;;;;6242399;23;20028;-80
2022/10/03 10:24:31;;;;;;;10.10;1.58;;;18.90;99.90;;;;;;6242833;22;20474;-79
2022/10/03 10:27:34;;;;;;;7.90;1.77;;;18.90;99.90;;;;;;6241171;23;20024;-80
2022/10/03 10:30:18;;;;;;;6.65;1.38;;;18.90;99.90;;;;;;6243438;22;20449;-79
2022/10/03 10:33:03;;;;;;;11.25;1.50;;;19.10;99.90;;;;;;6243609;22;20091;-81
2022/10/03 10:35:32;;;;;;;;;;;19.20;99.90;;;;;;6243133;23;20082;-81
2022/10/03 10:38:19;;;;;;;8.25;1.38;;;19.20;99.90;;;;;;6244420;23;20243;-80
2022/10/03 10:41:22;;;;;;;9.55;1.30;;;19.50;99.90;;;;;;6242450;23;20716;-83
2022/10/03 10:44:01;;;;;;;10.93;2.08;;;19.80;99.90;;;;;;6243337;22;20027;-80
2022/10/03 10:46:51;;;;;;;3.60;0.95;;;19.90;99.90;;;;;;6241247;23;20024;-79
2022/10/03 10:50:03;;;;;;;9.95;1.25;;;20.00;99.60;;;;;;6241321;23;20021;-80
2022/10/03 10:53:05;;;;;;;11.57;1.92;;;20.00;99.90;;;;;;6241824;23;20028;-80
2022/10/03 10:56:07;;;;;;;5.95;1.15;;;19.80;99.30;;;;;;6241305;23;20073;-78
2022/10/03 10:58:56;;;;;;;7.40;2.20;;;19.80;99.90;;;;;;6218210;23;20026;-82
2022/10/03 11:01:49;;;;;;;8.75;1.23;;;20.00;99.90;;;;;;6243006;22;20341;-79
2022/10/03 11:04:46;;;;;;;6.65;1.42;;;20.10;99.90;;;;;;6243295;23;20028;-81
2022/10/03 11:07:34;;;;;;;7.78;1.30;;;19.90;99.00;;;;;;6241130;23;20062;-80
2022/10/03 11:10:00;;;;;;;8.75;1.40;;;20.20;99.80;;;;;;6243633;22;20087;-79
2022/10/03 11:13:03;;;;;;;6.85;2.28;;;20.30;99.70;;;;;;6242747;22;20404;-80
2022/10/03 11:16:23;;;;;;;8.40;1.25;;;20.70;99.70;;;;;;6244684;22;20050;-80
2022/10/03 11:19:12;;;;;;;8.77;1.40;;;20.80;97.80;;;;;;6186317;23;20028;-81
2022/10/03 11:22:07;;;;;;;7.53;1.60;;;20.90;98.60;;;;;;6243177;23;20158;-83
2022/10/03 11:25:00;;;;;;;;;;;21.10;98.50;;;;;;6243845;23;20028;-83
2022/10/03 11:27:35;;;;;;;6.45;1.38;;;21.30;98.10;;;;;;6245237;22;19922;-82
2022/10/03 11:30:16;;;;;;;9.75;2.08;;;21.60;98.40;;;;;;6244672;23;20060;-83
2022/10/03 11:33:00;;;;;;;6.80;1.35;;;21.80;96.50;;;;;;6243559;23;20349;-85
2022/10/03 11:35:29;;;;;;;6.32;1.10;;;22.40;96.30;;;;;;6244535;22;20444;-81
2022/10/03 11:38:18;;;;;;;10.55;1.42;;;22.60;96.10;;;;;;6242926;23;20024;-85
2022/10/03 11:40:59;;;;;;;7.75;2.03;;;22.60;95.60;;;;;;6217576;23;20162;-86
2022/10/03 11:43:56;;;;;;;7.35;1.30;;;22.50;95.70;;;;;;6217535;23;20024;-81
2022/10/03 11:46:36;;;;;;;7.00;1.42;;;22.90;95.20;;;;;;6244599;22;20032;-80
2022/10/03 11:49:22;;;;;;;7.75;2.10;;;23.80;94.90;;;;;;6245051;23;20028;-85
2022/10/03 11:52:24;;;;;;;11.23;2.00;;;23.90;92.10;;;;;;6245260;22;20384;-82
2022/10/03 11:55:02;;;;;;;4.80;0.98;;;24.50;92.90;;;;;;6244868;23;20098;-80
2022/10/03 11:57:38;;;;;;;4.35;1.10;;;25.20;91.90;;;;;;6244062;23;20024;-80
2022/10/03 12:00:16;;;;;;;8.48;1.13;;;26.00;91.00;;;;;;6247260;23;20051;-81
2022/10/03 12:03:12;;;;;;;6.05;1.33;;;26.00;90.00;;;;;;6247227;22;20024;-81
2022/10/03 12:09:18;;;;;;;7.45;1.65;;;25.50;88.80;;;;;;6243187;23;20058;-83
2022/10/03 12:11:57;;;;;;;7.50;1.25;;;24.90;90.60;;;;;;6243194;22;20113;-84
2022/10/03 12:14:28;;;;;;;6.72;1.20;;;24.40;90.30;;;;;;6244455;22;20035;-82
2022/10/03 12:17:11;;;;;;;11.30;1.65;;;24.40;90.80;;;;;;6244907;22;20024;-83
2022/10/03 12:19:52;;;;;;;8.70;1.38;;;24.20;90.60;;;;;;6244411;22;20318;-84
2022/10/03 12:22:32;;;;;;;6.55;1.05;;;24.00;91.20;;;;;;6245402;22;20024;-81
2022/10/03 12:25:33;;;;;;;6.20;1.52;;;23.70;91.20;;;;;;6244873;23;20063;-86
2022/10/03 12:28:19;;;;;;;8.40;1.40;;;24.40;91.70;;;;;;6244917;23;20333;-84
2022/10/03 12:31:14;;;;;;;9.98;1.52;;;24.90;90.60;;;;;;6244731;22;20028;-78
2022/10/03 12:33:43;;;;;;;7.03;1.75;;;25.50;90.70;;;;;;6244251;22;20051;-75
2022/10/03 12:36:12;;;;;;;9.40;1.25;;;26.00;88.70;;;;;;6244525;22;20040;-80
2022/10/03 12:38:40;;;;;;;10.65;1.45;;;25.50;87.10;;;;;;6242895;23;20036;-85
2022/10/03 12:41:09;;;;;;;7.75;1.30;;;24.80;88.60;;;;;;6244982;23;20031;-84
2022/10/03 12:43:44;;;;;;;6.45;1.38;;;24.30;88.80;;;;;;6244545;22;20115;-74
2022/10/03 12:46:19;;;;;;;6.50;0.82;;;24.00;89.60;;;;;;6244560;23;20028;-77
2022/10/03 12:49:05;;;;;;;7.18;1.40;;;23.80;90.10;;;;;;6217412;23;20477;-78
2022/10/03 12:51:40;;;;;;;10.38;1.67;;;23.40;90.60;;;;;;6243384;23;20465;-78
2022/10/03 12:54:37;;;;;;;7.60;1.73;;;23.10;90.90;;;;;;6244707;22;20035;-80
2022/10/03 12:57:40;;;;;;;6.97;1.17;;;23.10;91.40;;;;;;6244865;23;20020;-76
2022/10/03 13:00:32;;;;;;;13.27;1.63;;;23.70;91.80;;;;;;6244008;23;20027;-76
2022/10/03 13:03:16;;;;;;;9.10;1.40;;;23.60;90.30;;;;;;6244490;23;20035;-77
2022/10/03 13:06:11;;;;;;;5.63;1.27;;;23.70;90.90;;;;;;6243784;23;20080;-74
2022/10/03 13:08:52;;;;;;;10.45;1.50;;;23.80;90.00;;;;;;6242178;23;20353;-80
2022/10/03 13:11:27;;;;;;;10.68;1.83;;;23.20;91.20;;;;;;6243390;22;20020;-79
2022/10/03 13:14:15;;;;;;;7.32;1.23;;;23.30;91.40;;;;;;6244137;22;20179;-83
2022/10/03 13:17:19;;;;;;;8.80;2.05;;;23.20;91.60;;;;;;6242372;23;20024;-81
2022/10/03 13:19:56;;;;;;;9.95;1.40;;;22.80;92.20;;;;;;6243592;23;20028;-80
2022/10/03 13:22:36;;;;;;;13.25;1.48;;;22.80;92.80;;;;;;6243242;22;20020;-83
2022/10/03 13:25:20;;;;;;;8.10;1.10;;;22.60;92.40;;;;;;6241780;23;20502;-79
2022/10/03 13:28:05;;;;;;;6.03;1.00;;;22.90;93.00;;;;;;6241767;23;20119;-81
2022/10/03 13:30:42;;;;;;;8.90;1.63;;;23.40;92.70;;;;;;6218956;23;20150;-82
2022/10/03 13:33:21;;;;;;;8.52;1.63;;;22.50;92.40;;;;;;6243769;22;20024;-82
2022/10/03 13:36:01;;;;;;;7.13;1.27;;;22.50;92.60;;;;;;6243047;23;20043;-79
2022/10/03 13:38:44;;;;;;;6.68;1.30;;;22.40;93.30;;;;;;6242160;23;20035;-81
2022/10/03 13:41:10;;;;;;;9.25;1.00;;;23.00;93.10;;;;;;6243629;22;20031;-81
2022/10/03 13:43:39;;;;;;;6.28;1.33;;;22.60;92.90;;;;;;6241949;23;20314;-81
2022/10/03 13:46:12;;;;;;;9.93;1.92;;;23.20;93.00;;;;;;6243183;22;20596;-81
2022/10/03 13:48:41;;;;;;;7.15;1.50;;;23.30;92.40;;;;;;6243030;22;20064;-82
2022/10/03 13:51:19;;;;;;;7.00;1.35;;;23.10;92.30;;;;;;6242018;23;20137;-83
2022/10/03 13:54:14;;;;;;;7.15;1.40;;;23.10;92.50;;;;;;6244677;22;20067;-79
2022/10/03 13:56:46;;;;;;;6.68;1.15;;;23.10;92.80;;;;;;6242594;23;20024;-79
2022/10/03 13:59:14;;;;;;;10.10;1.40;;;22.80;92.80;;;;;;6244956;22;20035;-83
2022/10/03 14:02:15;;;;;;;13.07;1.65;;;22.70;93.00;;;;;;6243454;23;20479;-80
2022/10/03 14:05:14;;;;;;;11.52;1.30;;;22.90;93.20;;;;;;6242069;23;20024;-78
2022/10/03 14:07:57;;;;;;;5.65;1.10;;;23.20;92.80;;;;;;6244563;23;20032;-80
2022/10/03 14:10:57;;;;;;;6.35;1.45;;;23.20;93.30;;;;;;6243759;22;20020;-87
2022/10/03 14:13:47;;;;;;;8.52;1.40;;;22.70;92.60;;;;;;6245151;22;20022;-82
2022/10/03 14:16:35;;;;;;;5.18;1.08;;;22.50;93.10;;;;;;6243983;23;20020;-82
2022/10/03 14:19:19;;;;;;;6.03;1.27;;;22.30;93.30;;;;;;6244875;22;20056;-76
2022/10/03 14:22:06;;;;;;;6.00;1.20;;;22.30;93.60;;;;;;6245070;23;20090;-82
2022/10/03 14:24:50;;;;;;;5.28;1.00;;;21.90;93.80;;;;;;6247458;22;20030;-82
2022/10/03 14:27:26;;;;;;;10.60;1.58;;;21.90;94.30;;;;;;6250069;23;20074;-84
2022/10/03 14:30:00;;;;;;;9.13;1.90;;;22.00;94.50;;;;;;6248848;23;20523;-85
2022/10/03 14:32:31;;;;;;;9.48;2.10;;;22.20;94.10;;;;;;6249837;23;20053;-81